Time;durP1;ratioP1;P1;durP2;ratioP2;P2;SDS_P1;SDS_P2;PMS_P1;PMS_P2;Temp;Humidity;BMP_temperature;BMP_pressure;BME280_temperature;BME280_humidity;BME280_pressure;Samples;Min_cycle;Max_cycle;Signal;HPM_P1;HPM_P2
2023/10/16 00:00:45;;;;;;;11.02;2.10;;;;;;;12.83;100.00;98214.91;5032585;28;20050;-71
2023/10/16 00:03:14;;;;;;;6.20;2.78;;;;;;;12.85;100.00;98222.72;5015852;28;20037;-71
2023/10/16 00:05:45;;;;;;;9.25;2.60;;;;;;;12.97;100.00;98211.22;4999541;28;20411;-71
2023/10/16 00:08:16;;;;;;;7.90;2.73;;;;;;;13.22;100.00;98219.41;5016782;28;20057;-72
2023/10/16 00:10:56;;;;;;;11.68;3.03;;;;;;;13.24;100.00;98223.47;5016800;28;20442;-73
2023/10/16 00:13:28;;;;;;;7.90;3.03;;;;;;;13.05;100.00;98229.66;4983308;28;20047;-73
2023/10/16 00:15:55;;;;;;;9.85;3.50;;;;;;;12.91;100.00;98244.03;5026751;28;20064;-73
2023/10/16 00:18:31;;;;;;;13.90;3.63;;;;;;;12.83;100.00;98232.75;5052414;28;20483;-73
2023/10/16 00:20:57;;;;;;;8.13;2.58;;;;;;;12.71;100.00;98226.41;5020172;28;20047;-73
2023/10/16 00:23:25;;;;;;;6.20;2.65;;;;;;;12.66;100.00;98234.19;5035741;28;20041;-72
2023/10/16 00:25:52;;;;;;;9.82;3.15;;;;;;;12.74;100.00;98221.50;5019687;28;20077;-72
2023/10/16 00:28:21;;;;;;;10.27;2.75;;;;;;;12.67;100.00;98218.00;5052405;28;20051;-72
2023/10/16 00:30:47;;;;;;;8.90;2.67;;;;;;;12.67;100.00;98209.19;5052161;28;20114;-72
2023/10/16 00:33:14;;;;;;;7.97;2.80;;;;;;;12.63;100.00;98208.78;5052797;28;20157;-74
2023/10/16 00:35:50;;;;;;;16.92;3.30;;;;;;;12.64;100.00;98210.41;5019306;28;20485;-72
2023/10/16 00:38:19;;;;;;;12.68;3.00;;;;;;;12.62;100.00;98207.16;5020766;28;20037;-72
2023/10/16 00:43:43;;;;;;;9.07;2.95;;;;;;;12.67;100.00;98202.00;5003122;28;20119;-75
2023/10/16 00:46:14;;;;;;;13.13;3.17;;;;;;;12.73;100.00;98203.84;4982677;28;20037;-73
2023/10/16 00:48:41;;;;;;;11.55;3.00;;;;;;;12.52;100.00;98214.72;4998705;28;20150;-74
2023/10/16 00:51:10;;;;;;;11.70;3.10;;;;;;;12.60;100.00;98214.53;4999244;28;20052;-74
2023/10/16 00:53:56;;;;;;;11.02;3.70;;;;;;;12.51;100.00;98205.09;5012631;28;20048;-73
2023/10/16 00:56:27;;;;;;;12.85;3.10;;;;;;;12.58;100.00;98211.25;5002547;28;20052;-73
2023/10/16 00:58:55;;;;;;;10.70;2.90;;;;;;;12.69;100.00;98221.28;5051452;28;20052;-73
2023/10/16 01:01:23;;;;;;;16.33;3.42;;;;;;;12.53;100.00;98215.56;5035364;28;20057;-74
2023/10/16 01:03:49;;;;;;;14.95;3.28;;;;;;;12.42;100.00;98217.00;5034896;28;20606;-73
2023/10/16 01:06:25;;;;;;;16.90;2.92;;;;;;;12.40;100.00;98220.84;5053333;28;20110;-73
2023/10/16 01:08:51;;;;;;;8.13;2.92;;;;;;;12.48;100.00;98218.84;5039726;28;20068;-73
2023/10/16 01:11:22;;;;;;;11.63;3.03;;;;;;;12.42;100.00;98218.81;5023026;28;20047;-73
2023/10/16 01:13:50;;;;;;;12.98;3.08;;;;;;;12.30;100.00;98212.47;5039268;28;20076;-74
2023/10/16 01:16:17;;;;;;;13.30;2.78;;;;;;;12.38;100.00;98212.28;5072886;28;20094;-74
2023/10/16 01:18:45;;;;;;;9.50;2.40;;;;;;;12.34;100.00;98217.19;5022518;28;20470;-74
2023/10/16 01:21:14;;;;;;;8.98;2.72;;;;;;;12.32;100.00;98210.41;5038285;28;20064;-74
2023/10/16 01:23:44;;;;;;;8.82;2.50;;;;;;;12.32;100.00;98215.72;5021571;28;20044;-73
2023/10/16 01:26:13;;;;;;;9.23;2.80;;;;;;;12.22;100.00;98220.63;5038048;28;20126;-73
2023/10/16 01:28:40;;;;;;;9.20;2.60;;;;;;;12.31;100.00;98209.59;5005548;28;20110;-72
2023/10/16 01:31:06;;;;;;;10.18;3.03;;;;;;;12.30;100.00;98218.59;5005239;28;20056;-74
2023/10/16 01:33:32;;;;;;;10.20;2.83;;;;;;;12.30;100.00;98212.47;5021336;28;20084;-73
2023/10/16 01:36:00;;;;;;;7.72;3.03;;;;;;;12.27;100.00;98212.88;5005696;28;20116;-72
2023/10/16 01:38:26;;;;;;;8.07;2.30;;;;;;;12.35;100.00;98205.50;5021200;28;20040;-74
2023/10/16 01:41:13;;;;;;;10.15;2.75;;;;;;;12.49;100.00;98211.66;5054489;28;20044;-73
2023/10/16 01:43:43;;;;;;;5.90;2.33;;;;;;;12.52;100.00;98212.06;5037447;28;20382;-74
2023/10/16 01:46:13;;;;;;;9.48;2.60;;;;;;;12.57;100.00;98206.13;5054691;28;20918;-76
2023/10/16 01:48:44;;;;;;;9.15;2.50;;;;;;;12.50;100.00;98202.66;5054268;28;20613;-73
2023/10/16 01:51:15;;;;;;;8.82;2.70;;;;;;;12.44;100.00;98204.28;5054517;28;20495;-73
2023/10/16 01:53:43;;;;;;;10.55;2.60;;;;;;;12.45;100.00;98195.28;5037685;28;20037;-73
2023/10/16 01:56:13;;;;;;;10.65;2.65;;;;;;;12.42;100.00;98185.03;5021697;28;20047;-73
2023/10/16 01:58:44;;;;;;;;;;;;;;;12.65;100.00;98190.75;5054392;28;20045;-73
2023/10/16 02:01:11;;;;;;;5.68;1.98;;;;;;;12.39;100.00;98190.78;5004701;28;19919;-72
2023/10/16 02:03:38;;;;;;;9.45;2.47;;;;;;;12.50;100.00;98198.13;5021093;28;20040;-73
2023/10/16 02:06:04;;;;;;;8.48;2.30;;;;;;;12.43;100.00;98186.66;5053788;28;20040;-72
2023/10/16 02:08:30;;;;;;;7.80;2.50;;;;;;;12.50;100.00;98198.13;5020970;28;20071;-73
2023/10/16 02:10:57;;;;;;;5.97;2.47;;;;;;;12.60;100.00;98201.22;5054079;28;20044;-72
2023/10/16 02:13:24;;;;;;;6.47;2.53;;;;;;;12.68;100.00;98187.69;5054117;28;20032;-73
2023/10/16 02:15:50;;;;;;;11.90;2.58;;;;;;;12.56;100.00;98186.66;5053776;28;20041;-74
2023/10/16 02:18:22;;;;;;;9.25;2.70;;;;;;;12.66;100.00;98189.72;5037429;28;20067;-74
2023/10/16 02:21:11;;;;;;;14.13;2.50;;;;;;;12.78;100.00;98192.56;5042657;28;20055;-73
2023/10/16 02:23:45;;;;;;;6.70;2.20;;;;;;;12.90;100.00;98198.94;5054209;28;20048;-74
2023/10/16 02:26:18;;;;;;;5.75;2.22;;;;;;;12.73;100.00;98203.06;5021700;28;20045;-73
2023/10/16 02:28:54;;;;;;;6.90;2.33;;;;;;;12.67;100.00;98209.19;5039938;28;20051;-74
2023/10/16 02:31:22;;;;;;;7.85;2.20;;;;;;;12.64;100.00;98209.63;5043288;28;20041;-73
2023/10/16 02:34:05;;;;;;;9.25;2.25;;;;;;;12.79;100.00;98211.00;5025464;28;20101;-73
2023/10/16 02:36:31;;;;;;;12.20;3.30;;;;;;;12.79;100.00;98208.34;5043531;28;20049;-73
2023/10/16 02:38:57;;;;;;;8.77;2.10;;;;;;;12.79;100.00;98202.22;5041249;28;20045;-73
2023/10/16 02:41:23;;;;;;;9.13;2.22;;;;;;;12.80;100.00;98206.50;5041274;28;20193;-74
2023/10/16 02:43:51;;;;;;;13.75;2.20;;;;;;;12.81;100.00;98202.81;5025125;28;20040;-74
2023/10/16 02:46:21;;;;;;;8.90;2.45;;;;;;;12.79;100.00;98203.03;5041102;28;20059;-74
2023/10/16 02:48:47;;;;;;;4.63;1.77;;;;;;;12.78;100.00;98190.75;5040948;28;20049;-71
2023/10/16 02:51:16;;;;;;;6.63;1.98;;;;;;;12.79;100.00;98194.22;5057452;28;20037;-73
2023/10/16 02:53:43;;;;;;;7.13;1.95;;;;;;;12.78;100.00;98189.91;5040611;28;20820;-74
2023/10/16 02:59:01;;;;;;;8.18;2.08;;;;;;;12.80;100.00;98203.84;5040411;28;20459;-72
2023/10/16 03:01:30;;;;;;;8.88;1.95;;;;;;;12.66;100.00;98195.06;5011041;28;20059;-74
2023/10/16 03:03:58;;;;;;;11.23;2.20;;;;;;;12.60;100.00;98214.53;5040760;28;20043;-74
2023/10/16 03:06:26;;;;;;;4.50;2.05;;;;;;;12.46;100.00;98218.22;5040419;28;20067;-76
2023/10/16 03:08:54;;;;;;;9.68;2.35;;;;;;;12.49;100.00;98216.97;5057120;28;20040;-72
2023/10/16 03:11:20;;;;;;;9.82;2.28;;;;;;;12.49;100.00;98225.78;5041100;28;20045;-73
2023/10/16 03:13:50;;;;;;;6.45;2.63;;;;;;;12.56;100.00;98228.47;5056741;28;20508;-71
2023/10/16 03:16:17;;;;;;;8.57;2.65;;;;;;;12.49;100.00;98225.78;5040140;28;20071;-71
2023/10/16 03:18:47;;;;;;;8.65;2.45;;;;;;;12.66;100.00;98218.19;5056766;28;20044;-74
2023/10/16 03:23:44;;;;;;;10.02;2.15;;;;;;;12.75;100.00;98217.78;5039963;28;20049;-74
2023/10/16 03:26:22;;;;;;;5.18;1.90;;;;;;;12.75;100.00;98222.28;5024129;28;20053;-74
2023/10/16 03:28:49;;;;;;;8.70;2.40;;;;;;;12.80;100.00;98222.50;5008615;28;20043;-73
2023/10/16 03:31:15;;;;;;;8.18;2.28;;;;;;;12.74;100.00;98202.84;5035874;28;20053;-73
2023/10/16 03:33:41;;;;;;;8.10;2.13;;;;;;;12.66;100.00;98213.69;5035505;28;20057;-73
2023/10/16 03:36:09;;;;;;;7.03;1.95;;;;;;;12.68;100.00;98205.50;5019077;28;20464;-74
2023/10/16 03:38:38;;;;;;;5.40;1.73;;;;;;;12.89;100.00;98207.94;5002788;28;20040;-73
2023/10/16 03:41:11;;;;;;;9.82;1.90;;;;;;;12.67;100.00;98206.53;5019222;28;20051;-72
2023/10/16 03:43:42;;;;;;;4.78;1.70;;;;;;;12.84;100.00;98203.22;5003885;28;20614;-72
2023/10/16 03:46:13;;;;;;;15.30;2.63;;;;;;;12.94;100.00;98213.47;5019541;28;20122;-73
2023/10/16 03:48:39;;;;;;;12.02;2.15;;;;;;;12.75;100.00;98214.31;5038279;28;20051;-73
2023/10/16 03:51:10;;;;;;;8.57;1.90;;;;;;;12.65;100.00;98209.41;5018249;28;20183;-75
2023/10/16 03:53:36;;;;;;;7.35;2.05;;;;;;;12.53;100.00;98202.25;5002412;28;20037;-74
2023/10/16 03:56:04;;;;;;;6.97;1.90;;;;;;;12.40;100.00;98207.53;5018415;28;20127;-77
2023/10/16 03:58:35;;;;;;;5.63;2.20;;;;;;;12.42;100.00;98203.69;5013530;28;20042;-73
2023/10/16 04:01:10;;;;;;;7.85;2.40;;;;;;;12.27;100.00;98189.72;5002730;28;20037;-74
2023/10/16 04:03:46;;;;;;;7.00;2.00;;;;;;;12.25;100.00;98194.44;5021112;28;20040;-74
2023/10/16 04:06:18;;;;;;;4.82;1.88;;;;;;;12.23;100.00;98200.97;5007285;28;20048;-74
2023/10/16 04:08:49;;;;;;;4.40;1.80;;;;;;;12.34;100.00;98187.91;5040093;28;20036;-75
2023/10/16 04:11:16;;;;;;;6.50;1.90;;;;;;;12.31;97.78;98185.66;5057443;28;20182;-76
2023/10/16 04:13:48;;;;;;;4.80;1.65;;;;;;;12.37;96.38;98198.13;5023732;28;20041;-73
2023/10/16 04:22:27;;;;;;;10.00;2.40;;;;;;;12.50;96.60;98195.47;4931542;28;20138;-75
2023/10/16 04:24:45;;;;;;;6.10;2.58;;;;;;;12.36;98.38;98177.84;4960707;28;20143;-75
2023/10/16 04:30:32;;;;;;;9.13;2.45;;;;;;;12.32;100.00;98181.94;5003546;28;20064;-73
2023/10/16 04:33:13;;;;;;;6.95;2.00;;;;;;;12.19;100.00;98158.00;5047995;28;20365;-73
2023/10/16 04:43:37;;;;;;;5.13;2.10;;;;;;;12.35;99.51;98159.41;5038264;28;20055;-72
2023/10/16 04:49:04;;;;;;;6.43;2.13;;;;;;;12.39;99.26;98172.13;4911667;29;20621;-73
2023/10/16 04:51:52;;;;;;;8.07;2.30;;;;;;;12.37;98.83;98181.34;4932003;29;20528;-73
2023/10/16 04:54:37;;;;;;;6.10;2.10;;;;;;;12.41;99.80;98186.03;4913499;29;20047;-72
2023/10/16 05:02:40;;;;;;;11.80;2.90;;;;;;;12.49;100.00;98179.69;4890518;29;20146;-72
2023/10/16 05:07:53;;;;;;;11.93;3.53;;;;;;;12.64;100.00;98182.97;5013642;28;20057;-72
2023/10/16 05:16:27;;;;;;;10.02;2.53;;;;;;;12.82;99.91;98193.81;5051710;28;20041;-72
2023/10/16 05:18:43;;;;;;;12.07;2.58;;;;;;;12.79;99.40;98192.38;5085059;28;20048;-72
2023/10/16 06:16:17;;;;;;;10.93;3.35;;;;;;;12.39;98.67;98166.81;5036748;28;20090;-72
2023/10/16 06:18:47;;;;;;;8.73;3.60;;;;;;;12.37;99.36;98176.00;5035858;28;20464;-73
2023/10/16 06:21:16;;;;;;;12.23;3.97;;;;;;;12.26;99.96;98177.44;5051152;28;20105;-72
2023/10/16 06:23:48;;;;;;;16.20;3.15;;;;;;;12.22;99.79;98178.88;5034062;28;20140;-72
2023/10/16 06:26:15;;;;;;;9.63;2.72;;;;;;;12.09;99.33;98175.38;5050527;28;20110;-72
2023/10/16 06:28:47;;;;;;;11.90;2.70;;;;;;;11.99;99.81;98189.09;5051495;28;20138;-72
2023/10/16 06:31:23;;;;;;;12.25;3.10;;;;;;;12.08;100.00;98174.56;5001826;28;20056;-72
2023/10/16 06:33:56;;;;;;;5.22;2.60;;;;;;;12.01;100.00;98173.72;5018878;28;20045;-73
2023/10/16 06:36:24;;;;;;;10.40;3.20;;;;;;;11.85;100.00;98176.78;5033746;28;20040;-72
2023/10/16 06:38:51;;;;;;;5.97;2.42;;;;;;;11.74;100.00;98180.84;5034214;28;20045;-72
2023/10/16 06:41:21;;;;;;;6.25;2.58;;;;;;;11.83;100.00;98176.97;5033859;28;20095;-72
2023/10/16 06:43:48;;;;;;;7.40;2.55;;;;;;;11.72;100.00;98174.91;5050248;28;20110;-72
2023/10/16 06:46:22;;;;;;;8.00;2.67;;;;;;;11.67;100.00;98181.81;5050477;28;20053;-72
2023/10/16 06:48:52;;;;;;;8.50;2.03;;;;;;;11.72;100.00;98168.75;5002207;28;20044;-73
2023/10/16 06:51:22;;;;;;;5.55;2.10;;;;;;;11.54;100.00;98174.63;5017440;28;20151;-73
2023/10/16 06:53:47;;;;;;;4.07;1.52;;;;;;;11.52;100.00;98163.34;5051277;28;20044;-72
2023/10/16 06:56:14;;;;;;;8.25;2.10;;;;;;;11.49;100.00;98162.91;5050502;28;20052;-72
2023/10/16 06:58:41;;;;;;;4.65;1.38;;;;;;;11.48;100.00;98166.59;5050291;28;20045;-72
2023/10/16 07:01:07;;;;;;;2.38;1.40;;;;;;;11.40;100.00;98156.97;5050299;28;20670;-72
2023/10/16 07:03:33;;;;;;;4.28;1.50;;;;;;;11.38;100.00;98161.66;5050522;28;20104;-72
2023/10/16 07:05:59;;;;;;;3.58;1.90;;;;;;;11.35;100.00;98156.75;5017407;28;20048;-72
2023/10/16 07:08:25;;;;;;;5.53;2.10;;;;;;;11.24;100.00;98162.63;5000816;28;20060;-72
2023/10/16 07:10:56;;;;;;;4.20;2.30;;;;;;;11.33;100.00;98160.63;5033548;28;20040;-72
2023/10/16 07:13:31;;;;;;;8.20;3.05;;;;;;;11.31;100.00;98160.81;5049976;28;20124;-72
2023/10/16 07:16:02;;;;;;;5.05;2.80;;;;;;;11.21;100.00;98151.59;5052770;28;20060;-72
2023/10/16 07:18:32;;;;;;;3.80;2.25;;;;;;;11.30;100.00;98158.38;5054949;28;20128;-72
2023/10/16 07:23:24;;;;;;;5.50;2.38;;;;;;;11.13;100.00;98149.09;5053731;28;20045;-72
2023/10/16 07:25:54;;;;;;;7.95;2.10;;;;;;;11.14;100.00;98145.41;5020842;28;20064;-73
2023/10/16 07:28:21;;;;;;;10.93;2.75;;;;;;;11.03;100.00;98130.03;5036712;28;20051;-72
2023/10/16 07:30:47;;;;;;;8.65;2.42;;;;;;;10.89;100.00;98134.47;5037123;28;20037;-72
2023/10/16 07:33:16;;;;;;;6.57;1.92;;;;;;;10.89;100.00;98152.22;5004424;28;20063;-72
2023/10/16 07:35:47;;;;;;;6.25;2.00;;;;;;;10.98;100.00;98141.25;5036236;28;20040;-72
2023/10/16 07:38:13;;;;;;;;;;;;;;;11.18;100.00;98144.81;5021045;28;20052;-72
2023/10/16 07:40:39;;;;;;;9.60;2.20;;;;;;;10.86;100.00;98141.97;5020750;28;19920;-72
2023/10/16 07:43:08;;;;;;;6.40;2.15;;;;;;;10.77;100.00;98137.84;5036816;28;20130;-73
2023/10/16 07:45:34;;;;;;;7.93;2.35;;;;;;;10.77;100.00;98137.84;5037070;28;20057;-73
2023/10/16 07:48:17;;;;;;;6.05;2.85;;;;;;;10.69;100.00;98130.88;5037203;28;20147;-72
2023/10/16 07:50:44;;;;;;;8.90;2.65;;;;;;;10.71;100.00;98133.31;5054406;28;20072;-73
2023/10/16 07:53:17;;;;;;;8.52;2.50;;;;;;;10.71;100.00;98125.34;5019968;28;20045;-73
2023/10/16 07:55:52;;;;;;;7.15;2.55;;;;;;;10.74;100.00;98115.19;5068884;28;20088;-73
2023/10/16 08:02:08;;;;;;;6.85;2.08;;;;;;;10.55;100.00;98107.09;5054136;28;20063;-74
2023/10/16 08:04:37;;;;;;;5.43;1.60;;;;;;;10.56;100.00;98108.72;5019472;28;20135;-73
2023/10/16 08:07:09;;;;;;;5.50;1.77;;;;;;;10.56;100.00;98108.72;5053672;28;20468;-73
2023/10/16 08:12:12;;;;;;;9.10;2.40;;;;;;;10.53;100.00;98119.75;5036065;28;20143;-73
2023/10/16 08:14:42;;;;;;;9.55;3.03;;;;;;;10.67;100.00;98110.84;5038196;28;20039;-73
2023/10/16 08:17:17;;;;;;;5.38;2.30;;;;;;;10.62;100.00;98102.66;5004364;28;20044;-73
2023/10/16 08:19:46;;;;;;;4.38;2.28;;;;;;;10.77;100.00;98114.78;5036105;28;20074;-73
2023/10/16 08:22:15;;;;;;;5.30;1.95;;;;;;;10.52;100.00;98097.69;5035918;28;20479;-73
2023/10/16 08:24:43;;;;;;;7.97;2.08;;;;;;;10.66;100.00;98088.78;5052545;28;20044;-73
2023/10/16 08:27:39;;;;;;;4.57;1.60;;;;;;;10.57;100.00;98097.91;5019412;28;20087;-73
2023/10/16 08:30:32;;;;;;;4.95;1.42;;;;;;;10.59;100.00;98108.34;5039529;28;20037;-73
2023/10/16 08:33:06;;;;;;;4.13;1.58;;;;;;;10.48;100.00;98117.66;5039731;28;20050;-72
2023/10/16 08:35:39;;;;;;;2.67;1.45;;;;;;;10.42;100.00;98101.69;5053378;28;20087;-74
2023/10/16 08:38:12;;;;;;;7.38;1.83;;;;;;;10.54;100.00;98094.81;5019877;28;20052;-73
2023/10/16 08:40:42;;;;;;;4.60;1.90;;;;;;;10.65;100.00;98096.94;5036234;28;20099;-73
2023/10/16 08:43:09;;;;;;;4.25;1.40;;;;;;;10.60;100.00;98102.84;5036571;28;20475;-73
2023/10/16 08:45:48;;;;;;;3.85;1.52;;;;;;;10.39;100.00;98108.22;5035791;28;20048;-73
2023/10/16 08:48:17;;;;;;;4.25;1.67;;;;;;;10.45;100.00;98106.63;5053878;28;20048;-73
2023/10/16 08:51:00;;;;;;;3.85;1.48;;;;;;;10.52;100.00;98110.94;5035901;28;20092;-73
2023/10/16 08:53:32;;;;;;;2.40;1.30;;;;;;;10.42;100.00;98104.34;5005336;28;20082;-73
2023/10/16 08:56:03;;;;;;;3.20;1.23;;;;;;;10.34;100.00;98109.78;4987290;28;20086;-73
2023/10/16 08:58:40;;;;;;;3.83;1.20;;;;;;;10.47;100.00;98116.00;5052233;28;20045;-73
2023/10/16 09:01:11;;;;;;;3.08;1.75;;;;;;;10.31;100.00;98110.19;4986484;28;20487;-73
2023/10/16 09:03:57;;;;;;;2.75;1.40;;;;;;;10.42;100.00;98096.38;5019854;28;20057;-73
2023/10/16 09:06:24;;;;;;;8.73;2.00;;;;;;;10.24;100.00;98095.03;5018237;28;20044;-72
2023/10/16 09:08:51;;;;;;;7.15;1.65;;;;;;;10.13;100.00;98084.16;5018931;28;20135;-72
2023/10/16 09:11:19;;;;;;;4.90;2.03;;;;;;;10.27;100.00;98080.59;4995595;28;20077;-72
2023/10/16 09:13:51;;;;;;;3.60;1.52;;;;;;;10.33;100.00;98095.72;4963270;28;20045;-72
2023/10/16 09:16:21;;;;;;;11.02;1.77;;;;;;;10.24;100.00;98097.69;4963800;28;20061;-72
2023/10/16 09:18:50;;;;;;;5.88;1.85;;;;;;;10.31;100.00;98075.69;4979330;28;20061;-72
2023/10/16 09:21:28;;;;;;;10.70;1.80;;;;;;;10.23;100.00;98080.16;4962227;28;20050;-71
2023/10/16 09:24:00;;;;;;;15.63;2.17;;;;;;;10.44;100.00;98073.13;4963989;28;20058;-72
2023/10/16 09:26:54;;;;;;;5.45;1.88;;;;;;;10.36;100.00;98073.28;4963004;28;20415;-71
2023/10/16 09:29:20;;;;;;;7.63;2.85;;;;;;;10.34;100.00;98077.97;4980827;28;20046;-71
2023/10/16 09:31:46;;;;;;;6.40;1.92;;;;;;;10.33;100.00;98071.84;4979459;28;20073;-72
2023/10/16 09:34:18;;;;;;;5.45;1.80;;;;;;;10.30;100.00;98072.25;4978959;28;20065;-72
2023/10/16 09:39:34;;;;;;;5.10;1.70;;;;;;;10.29;100.00;98061.81;4978595;28;20053;-72
2023/10/16 09:42:11;;;;;;;7.65;1.90;;;;;;;10.40;100.00;98082.47;4978264;28;20041;-72
2023/10/16 09:44:41;;;;;;;9.90;2.30;;;;;;;10.42;100.00;98069.84;4947111;28;20598;-72
2023/10/16 09:47:26;;;;;;;6.68;1.90;;;;;;;10.44;100.00;98071.28;4946422;28;20157;-71
2023/10/16 09:49:59;;;;;;;6.85;2.00;;;;;;;10.44;100.00;98073.94;5016280;28;20087;-71
2023/10/16 09:52:32;;;;;;;3.33;1.60;;;;;;;10.29;100.00;98075.88;5002080;28;20123;-71
2023/10/16 09:55:05;;;;;;;7.03;2.05;;;;;;;10.20;100.00;98072.56;5018741;28;20135;-72
2023/10/16 09:57:32;;;;;;;5.20;1.70;;;;;;;10.35;100.00;98077.75;5019073;28;20098;-72
2023/10/16 10:00:23;;;;;;;7.35;1.90;;;;;;;10.37;100.00;98070.44;5001905;28;20040;-72
2023/10/16 10:02:51;;;;;;;5.38;1.90;;;;;;;10.49;100.00;98070.69;5037515;28;20489;-71
2023/10/16 10:05:21;;;;;;;5.07;2.33;;;;;;;10.35;100.00;98077.75;5051131;28;20045;-72
2023/10/16 10:07:48;;;;;;;3.83;2.40;;;;;;;10.39;100.00;98075.56;4985923;28;20441;-72
2023/10/16 10:13:08;;;;;;;4.07;2.20;;;;;;;10.41;100.00;98081.50;5053389;28;20497;-72
2023/10/16 10:15:42;;;;;;;5.05;1.90;;;;;;;10.39;100.00;98065.75;5035030;28;20487;-72
2023/10/16 10:18:32;;;;;;;9.70;2.25;;;;;;;10.31;100.00;98057.94;5018617;28;20060;-72
2023/10/16 10:20:58;;;;;;;5.57;2.10;;;;;;;10.27;100.00;98061.19;5022088;28;20182;-72
2023/10/16 10:23:26;;;;;;;5.40;2.00;;;;;;;10.26;100.00;98065.66;5018765;28;20106;-72
2023/10/16 10:25:56;;;;;;;6.63;2.10;;;;;;;10.14;100.00;98060.09;5034996;28;20059;-72
2023/10/16 10:28:25;;;;;;;3.45;1.65;;;;;;;10.27;100.00;98050.56;5002638;28;20053;-72
2023/10/16 10:30:55;;;;;;;9.38;2.80;;;;;;;10.27;100.00;98046.09;5034951;28;20040;-71
2023/10/16 10:33:37;;;;;;;7.72;2.15;;;;;;;10.36;100.00;98055.53;5051022;28;20372;-72
2023/10/16 10:36:38;;;;;;;6.32;2.05;;;;;;;10.38;100.00;98047.38;5017769;28;21072;-72
2023/10/16 10:39:20;;;;;;;4.68;2.30;;;;;;;10.43;100.00;98036.97;5018516;28;20045;-72
2023/10/16 10:41:54;;;;;;;8.30;2.80;;;;;;;10.31;100.00;98027.94;5051462;28;20049;-72
2023/10/16 10:44:37;;;;;;;5.15;2.58;;;;;;;10.50;100.00;98027.25;4990544;28;20058;-72
2023/10/16 10:47:24;;;;;;;4.35;2.70;;;;;;;10.46;100.00;98034.75;4926670;28;20042;-71
2023/10/16 10:49:51;;;;;;;3.42;2.60;;;;;;;10.40;100.00;98021.44;4929328;28;20054;-72
2023/10/16 10:52:20;;;;;;;5.78;2.67;;;;;;;10.40;100.00;98021.44;4962232;28;20162;-71
2023/10/16 10:54:57;;;;;;;6.25;3.10;;;;;;;10.39;100.00;98022.47;4962282;28;20050;-71
2023/10/16 10:57:24;;;;;;;9.00;3.20;;;;;;;10.45;100.00;98017.22;4962321;28;20540;-72
2023/10/16 11:00:22;;;;;;;10.32;3.42;;;;;;;10.49;100.00;98010.47;4945829;28;20089;-72
2023/10/16 11:03:05;;;;;;;10.65;3.72;;;;;;;10.67;100.00;97996.69;4949081;28;20034;-73
2023/10/16 11:05:39;;;;;;;5.18;3.70;;;;;;;10.64;100.00;97992.56;4963889;28;20050;-73
2023/10/16 11:10:42;;;;;;;9.57;4.15;;;;;;;10.70;100.00;97998.94;4981958;28;20046;-72
2023/10/16 11:13:09;;;;;;;8.25;3.95;;;;;;;10.69;100.00;97987.50;4965336;28;20046;-73
2023/10/16 11:15:45;;;;;;;8.00;4.35;;;;;;;10.85;100.00;97986.34;5009030;28;20445;-73
2023/10/16 11:18:26;;;;;;;9.95;4.75;;;;;;;10.97;100.00;97982.06;5057075;28;20214;-73
2023/10/16 11:20:54;;;;;;;;;;;;;;;11.15;100.00;97983.13;5057166;28;20517;-73
2023/10/16 11:23:31;;;;;;;14.27;4.93;;;;;;;10.99;100.00;97980.03;5057185;28;20282;-72
2023/10/16 11:26:04;;;;;;;10.38;4.75;;;;;;;10.95;100.00;97976.97;5024366;28;20053;-72
2023/10/16 11:29:22;;;;;;;;;;;;;;;;;;;;;
2023/10/16 11:31:52;;;;;;;8.18;3.95;;;;;;;11.05;100.00;97972.09;5032947;28;20086;-75
2023/10/16 11:34:22;;;;;;;9.45;4.00;;;;;;;11.03;100.00;97974.13;5008650;28;20068;-72
2023/10/16 11:36:50;;;;;;;7.60;3.30;;;;;;;11.16;100.00;97968.03;5039648;28;20050;-72
2023/10/16 11:39:21;;;;;;;7.43;3.33;;;;;;;11.08;100.00;97971.69;5051936;28;20099;-70
2023/10/16 11:41:48;;;;;;;7.20;2.97;;;;;;;11.18;100.00;97961.47;5001336;28;20514;-72
2023/10/16 11:44:19;;;;;;;5.63;3.10;;;;;;;11.14;100.00;97959.44;5020824;28;20044;-70
2023/10/16 11:46:52;;;;;;;6.13;3.13;;;;;;;11.16;100.00;97960.06;5007333;28;20058;-70
2023/10/16 11:51:51;;;;;;;4.88;2.70;;;;;;;11.20;100.00;97958.63;5047111;28;20036;-71
2023/10/16 11:54:19;;;;;;;6.55;3.40;;;;;;;11.18;100.00;97958.81;5015363;28;20045;-71
2023/10/16 11:56:55;;;;;;;9.13;3.92;;;;;;;11.35;100.00;97948.59;4982987;28;20049;-71
2023/10/16 11:59:25;;;;;;;7.90;3.40;;;;;;;11.35;100.00;97957.41;5003019;28;20123;-75
2023/10/16 12:02:11;;;;;;;7.25;3.95;;;;;;;11.32;100.00;97954.34;4999936;28;20560;-72
2023/10/16 12:04:42;;;;;;;6.95;3.42;;;;;;;11.40;100.00;97949.66;5002403;28;20048;-71
2023/10/16 12:07:09;;;;;;;4.88;2.75;;;;;;;11.20;100.00;97948.81;5002974;28;20164;-73
2023/10/16 12:09:42;;;;;;;6.43;3.13;;;;;;;11.19;100.00;97954.34;4993887;28;20037;-74
2023/10/16 12:12:19;;;;;;;6.82;2.97;;;;;;;11.28;100.00;97948.63;5014247;28;20068;-74
2023/10/16 12:14:52;;;;;;;3.92;2.40;;;;;;;11.22;100.00;97949.44;5012528;28;20056;-77
2023/10/16 12:17:20;;;;;;;4.82;2.72;;;;;;;11.30;100.00;97945.75;4979377;28;20159;-74
2023/10/16 12:19:48;;;;;;;9.30;3.10;;;;;;;11.33;100.00;97945.34;4952877;28;20140;-75
2023/10/16 12:22:20;;;;;;;7.28;3.35;;;;;;;11.36;100.00;97932.47;4968112;28;20054;-74
2023/10/16 12:24:50;;;;;;;5.30;2.90;;;;;;;11.39;100.00;97939.22;4946518;28;20051;-76
2023/10/16 12:27:17;;;;;;;9.98;2.58;;;;;;;11.47;100.00;97933.72;4937414;29;20070;-75
2023/10/16 12:29:49;;;;;;;7.47;4.82;;;;;;;11.61;100.00;97936.13;4937978;29;20079;-75
2023/10/16 12:32:16;;;;;;;6.18;3.13;;;;;;;11.55;100.00;97931.66;4921779;29;20066;-75
2023/10/16 12:34:44;;;;;;;6.28;3.65;;;;;;;11.49;100.00;97937.78;4903613;29;20051;-75
2023/10/16 12:37:15;;;;;;;8.18;3.47;;;;;;;11.56;100.00;97938.59;4918256;29;20111;-73
2023/10/16 12:39:47;;;;;;;5.45;3.40;;;;;;;11.44;100.00;97939.44;4918529;29;20059;-78
2023/10/16 12:42:15;;;;;;;8.13;3.55;;;;;;;11.45;100.00;97941.06;4903246;29;20192;-74
2023/10/16 12:44:44;;;;;;;4.13;2.75;;;;;;;11.30;100.00;97932.47;4902375;29;20102;-74
2023/10/16 12:47:14;;;;;;;6.00;3.17;;;;;;;11.41;100.00;97945.13;4917856;29;20562;-75
2023/10/16 12:49:40;;;;;;;5.32;3.03;;;;;;;11.26;100.00;97937.38;4909864;29;20067;-74
2023/10/16 12:52:07;;;;;;;6.47;3.20;;;;;;;11.27;100.00;97943.50;4906018;29;20073;-75
2023/10/16 12:54:35;;;;;;;7.35;3.40;;;;;;;11.25;100.00;97938.41;4891992;29;20379;-72
2023/10/16 12:57:02;;;;;;;10.73;3.38;;;;;;;11.24;100.00;97933.28;4915731;28;20054;-74
2023/10/16 12:59:30;;;;;;;6.63;4.00;;;;;;;11.30;100.00;97930.63;4943498;28;20046;-72
2023/10/16 13:01:59;;;;;;;10.30;4.60;;;;;;;11.34;100.00;97934.53;4926957;28;20119;-75
2023/10/16 13:04:28;;;;;;;7.25;4.38;;;;;;;11.38;100.00;97938.41;4940478;28;20393;-74
2023/10/16 13:06:54;;;;;;;7.85;5.60;;;;;;;11.41;100.00;97932.66;4965352;28;20234;-75
2023/10/16 13:09:22;;;;;;;8.88;5.25;;;;;;;11.38;100.00;97933.09;4989019;28;20208;-74
2023/10/16 13:11:51;;;;;;;10.90;5.30;;;;;;;11.50;100.00;97938.63;5009754;28;20085;-73
2023/10/16 13:14:19;;;;;;;7.03;5.07;;;;;;;11.33;100.00;97937.38;4977818;28;20555;-75
2023/10/16 13:16:56;;;;;;;11.60;6.80;;;;;;;11.34;100.00;97939.84;4962874;28;20045;-76
2023/10/16 13:19:27;;;;;;;11.20;7.95;;;;;;;11.57;100.00;97944.72;4950352;28;20158;-75
2023/10/16 13:22:07;;;;;;;10.93;5.95;;;;;;;11.44;100.00;97939.44;4939175;28;20133;-75
2023/10/16 13:24:35;;;;;;;11.02;6.40;;;;;;;11.57;100.00;97939.41;4901367;29;20446;-76
2023/10/16 13:27:02;;;;;;;6.55;4.47;;;;;;;11.83;100.00;97940.25;4901331;29;20051;-77
2023/10/16 13:29:30;;;;;;;7.15;3.50;;;;;;;11.65;100.00;97933.94;4930921;29;20161;-78
2023/10/16 13:32:00;;;;;;;9.88;4.78;;;;;;;11.69;100.00;97943.13;4904434;29;20045;-78
2023/10/16 13:34:26;;;;;;;8.98;3.60;;;;;;;11.87;100.00;97940.63;4922720;28;20128;-77
2023/10/16 13:37:00;;;;;;;9.35;5.00;;;;;;;11.64;100.00;97940.25;4921680;28;20098;-77
2023/10/16 13:39:31;;;;;;;10.20;4.80;;;;;;;11.86;100.00;97939.00;4920020;29;20513;-77
2023/10/16 13:41:59;;;;;;;10.90;4.72;;;;;;;11.83;100.00;97937.59;4906455;28;20046;-78